PAUN/UNK METAR and TAF weather

Enter ICAO airport designator
Station Type Date Time Source
PAUN METAR 2018/12/19 02:56 UTC NOAA

PAUN 190256Z AUTO 01009KT 10SM FEW035 M21/M23 A2965 RMK AO2 SLP043 T12061233 53000 FZRANO


Station Type Date Time Source
PAUN Decoded METAR 2018/12/19 02:56 UTC NOAA

Unalakleet, AK, United States (PAUN) 63-53N 160-48W 6M
Dec 18, 2018 - 09:56 PM EST / 2018.12.19 0256 UTC
Wind: from the N (010 degrees) at 10 MPH (9 KT):0
Visibility: 10 mile(s):0
Sky conditions: mostly clear
Temperature: -5.1 F (-20.6 C)
Windchill: -22 F (-30 C):2
Dew Point: -9.9 F (-23.3 C)
Relative Humidity: 78%
Pressure (altimeter): 29.65 in. Hg (1004 hPa)
Pressure tendency: 0.00 inches (0.0 hPa) higher than three hours ago
ob: PAUN 190256Z AUTO 01009KT 10SM FEW035 M21/M23 A2965 RMK AO2 SLP043 T12061233 53000 FZRANO
cycle: 3

Station Type Date Time Source
PAUN TAF 2018/12/18 18:39 UTC NOAA

TAF PAUN 181737Z 1818/1918 36008KT P6SM OVC029
FM182000 28004KT P6SM SCT029 SCT200


Example: see airport list